aviador You're here:

LFLL Decoded Metar

LYON ST. EXUPERY in FRANCE
Report Time2018-02-20 03:00:00
UTC Time2018-02-20 03:26:35
Flight Rules vfr VFR
Wind340° at 04 kt
W.Decomp.*RWY 36: 3.7 kt HW 1.4 kt LCW
W.Rank340° ranks 2
Current wind is below 340° avg. (8.4)
Visibility9999 m
Phenomena:N/A
Clouds:Few 030 Hf
Overcast 060 Hf
Expected CloudBase > 1,200 ft AGL from Temp-Dew spread
Ceiling6,000 ft
Temp02°C (ISA -11)
Dew Point-1°C (81% RH)
AAT-1.6°C
QNH1014 hPa
Density Alt-554 ft
Elevation787 ft
Report Wrong Elevation
Raw Report
LFLL 200300Z 34004KT 9999 FEW030 OVC060 02/M01 Q1014 NOSIG=

Extra information for LFLL:More info

Metar Taf Metar & Taf Last 4 Metars F.Rules Stats Wind Profile Meteogram Temp Stats Airport Information Weather charts Add Link Nearby VenuesMetar ALERT Operation Metar Decoded Social comments